createdAt,value
2022-09-09T00:01:48.125Z,97375.97
2022-09-09T00:06:57.036Z,97382.56
2022-09-09T00:12:10.348Z,97378.22
2022-09-09T00:17:37.329Z,97369.81
2022-09-09T00:23:07.539Z,97374.44
2022-09-09T00:28:24.634Z,97378.81
2022-09-09T00:33:28.475Z,97382.63
2022-09-09T00:38:56.635Z,97391.94
2022-09-09T00:44:21.500Z,97391.13
2022-09-09T00:49:50.897Z,97390.34
2022-09-09T00:55:32.218Z,97387.59
2022-09-09T01:01:10.157Z,97391.44
2022-09-09T01:06:36.275Z,97393.38
2022-09-09T01:12:02.281Z,97399.94
2022-09-09T01:17:12.587Z,97401.88
2022-09-09T01:22:32.199Z,97406.50
2022-09-09T01:27:37.974Z,97398.31
2022-09-09T01:32:46.950Z,97395.91
2022-09-09T01:37:51.542Z,97388.03
2022-09-09T01:42:56.429Z,97386.09
2022-09-09T01:48:01.111Z,97391.56
2022-09-09T01:53:34.096Z,97390.56
2022-09-09T01:58:59.126Z,97405.84
2022-09-09T02:04:09.149Z,97409.66
2022-09-09T02:09:16.388Z,97408.03
2022-09-09T02:14:29.102Z,97410.28
2022-09-09T02:19:46.246Z,97416.31
2022-09-09T02:25:01.304Z,97415.84
2022-09-09T02:30:07.820Z,97416.97
2022-09-09T02:35:27.367Z,97418.06
2022-09-09T02:40:30.932Z,97423.84
2022-09-09T02:45:53.211Z,97421.91
2022-09-09T02:51:54.433Z,97419.78
2022-09-09T02:57:09.497Z,97422.81
2022-09-09T03:02:16.058Z,97417.78
2022-09-09T03:07:23.372Z,97424.25
2022-09-09T03:12:28.916Z,97418.28
2022-09-09T03:17:32.530Z,97420.19
2022-09-09T03:22:36.575Z,97426.47
2022-09-09T03:27:40.142Z,97425.97
2022-09-09T03:32:48.417Z,97425.97
2022-09-09T03:37:52.769Z,97430.63
2022-09-09T03:42:56.510Z,97434.94
2022-09-09T03:48:03.003Z,97437.38
2022-09-09T03:53:08.111Z,97439.19
2022-09-09T03:58:11.520Z,97444.34
2022-09-09T04:03:15.106Z,97446.47
2022-09-09T04:08:20.201Z,97446.53
2022-09-09T04:13:27.099Z,97455.81
2022-09-09T04:18:33.564Z,97452.28
2022-09-09T04:23:37.689Z,97456.09
2022-09-09T04:28:42.460Z,97451.22
2022-09-09T04:33:54.426Z,97458.75
2022-09-09T04:38:59.487Z,97466.34
2022-09-09T04:44:04.755Z,97450.84
2022-09-09T04:49:14.452Z,97460.13
2022-09-09T04:54:19.898Z,97460.34
2022-09-09T04:59:24.793Z,97461.56
2022-09-09T05:04:32.530Z,97463.41
2022-09-09T05:09:36.043Z,97468.41
2022-09-09T05:14:39.583Z,97472.69
2022-09-09T05:19:45.213Z,97464.72
2022-09-09T05:24:48.978Z,97473.44
2022-09-09T05:29:52.702Z,97479.81
2022-09-09T05:34:57.424Z,97476.78
2022-09-09T05:40:03.233Z,97486.75
2022-09-09T05:45:08.260Z,97481.00
2022-09-09T05:50:11.989Z,97491.78
2022-09-09T05:55:15.760Z,97485.00
2022-09-09T06:00:19.715Z,97492.25
2022-09-09T06:05:23.720Z,97491.44
2022-09-09T06:10:27.353Z,97497.09
2022-09-09T06:15:30.837Z,97496.13
2022-09-09T06:20:34.080Z,97502.91
2022-09-09T06:25:41.975Z,97505.31
2022-09-09T06:30:49.813Z,97504.84
2022-09-09T06:35:55.154Z,97515.00
2022-09-09T06:41:00.456Z,97514.50
2022-09-09T06:46:16.699Z,97510.91
2022-09-09T06:51:24.062Z,97509.94
2022-09-09T06:56:33.034Z,97513.03
2022-09-09T07:01:42.296Z,97518.97
2022-09-09T07:06:50.967Z,97529.44
2022-09-09T07:11:58.605Z,97525.72
2022-09-09T07:17:03.526Z,97527.38
2022-09-09T07:22:13.100Z,97526.84
2022-09-09T07:27:17.265Z,97525.06
2022-09-09T07:32:21.617Z,97515.00
2022-09-09T07:37:25.009Z,97512.53
2022-09-09T07:42:30.019Z,97516.13
2022-09-09T07:47:35.373Z,97520.66
2022-09-09T07:52:42.242Z,97515.56
2022-09-09T07:57:46.188Z,97514.50
2022-09-09T08:02:51.895Z,97515.19
2022-09-09T08:07:55.316Z,97504.44
2022-09-09T08:13:15.242Z,97503.31
2022-09-09T08:18:22.055Z,97494.53
2022-09-09T08:23:25.606Z,97492.22
2022-09-09T08:28:29.750Z,97500.53
2022-09-09T08:33:33.820Z,97487.69
2022-09-09T08:38:37.775Z,97479.53
2022-09-09T08:43:44.779Z,97481.50
2022-09-09T08:48:59.208Z,97472.78
2022-09-09T08:54:05.975Z,97474.19
2022-09-09T08:59:14.147Z,97473.38
2022-09-09T09:04:35.187Z,97462.84
2022-09-09T09:09:47.996Z,97472.19
2022-09-09T09:14:51.824Z,97466.06
2022-09-09T09:19:56.686Z,97461.16
2022-09-09T09:25:03.342Z,97451.00
2022-09-09T09:30:32.290Z,97463.31
2022-09-09T09:35:43.216Z,97455.72
2022-09-09T09:40:56.781Z,97451.81
2022-09-09T09:46:16.839Z,97447.22
2022-09-09T09:51:24.553Z,97454.88
2022-09-09T09:56:29.914Z,97446.97
2022-09-09T10:01:36.281Z,97427.81
2022-09-09T10:06:44.693Z,97436.44
2022-09-09T10:12:12.387Z,97435.84
2022-09-09T10:17:31.002Z,97424.25
2022-09-09T10:22:35.214Z,97422.81
2022-09-09T10:27:38.799Z,97417.41
2022-09-09T10:33:06.560Z,97404.31
2022-09-09T10:38:22.007Z,97406.16
2022-09-09T10:43:34.435Z,97407.47
2022-09-09T10:48:56.431Z,97396.31
2022-09-09T10:54:30.345Z,97385.44
2022-09-09T10:59:48.308Z,97391.19
2022-09-09T11:04:58.923Z,97390.63
2022-09-09T11:10:08.594Z,97398.22
2022-09-09T11:15:40.695Z,97381.44
2022-09-09T11:20:45.951Z,97388.66
2022-09-09T11:25:56.570Z,97379.25
2022-09-09T11:31:23.283Z,97379.84
2022-09-09T11:36:53.056Z,97368.50
2022-09-09T11:42:09.444Z,97374.34
2022-09-09T11:47:32.858Z,97366.66
2022-09-09T11:52:42.299Z,97362.78
2022-09-09T11:57:49.443Z,97363.31
2022-09-09T12:02:52.998Z,97366.41
2022-09-09T12:07:59.442Z,97362.75
2022-09-09T12:13:10.215Z,97355.50
2022-09-09T12:18:22.789Z,97354.38
2022-09-09T12:23:36.635Z,97347.84
2022-09-09T12:28:54.193Z,97349.56
2022-09-09T12:34:24.383Z,97341.19
2022-09-09T12:39:39.133Z,97345.44
2022-09-09T12:45:01.734Z,97340.72
2022-09-09T12:50:17.802Z,97338.84
2022-09-09T12:55:28.854Z,97334.03
2022-09-09T13:00:33.028Z,97341.34
2022-09-09T13:05:39.144Z,97339.97
2022-09-09T13:10:55.481Z,97332.88
2022-09-09T13:16:02.849Z,97334.94
2022-09-09T13:21:06.420Z,97331.06
2022-09-09T13:26:27.622Z,97332.53
2022-09-09T13:31:34.314Z,97328.25
2022-09-09T13:36:37.780Z,97322.38
2022-09-09T13:41:45.901Z,97333.03
2022-09-09T13:47:01.737Z,97335.19
2022-09-09T13:52:13.287Z,97328.63
2022-09-09T13:57:25.435Z,97335.47
2022-09-09T14:02:28.706Z,97343.66
2022-09-09T14:07:32.227Z,97342.59
2022-09-09T14:12:35.585Z,97348.50
2022-09-09T14:17:38.836Z,97355.78
2022-09-09T14:22:42.984Z,97353.38
2022-09-09T14:27:46.388Z,97360.31
2022-09-09T14:32:50.214Z,97357.13
2022-09-09T14:37:53.722Z,97367.03
2022-09-09T14:42:57.370Z,97377.25
2022-09-09T14:48:00.890Z,97370.88
2022-09-09T14:53:11.141Z,97365.97
2022-09-09T14:58:14.367Z,97374.19
2022-09-09T15:03:18.033Z,97374.72
2022-09-09T15:08:21.403Z,97369.44
2022-09-09T15:13:24.897Z,97365.56
2022-09-09T15:18:28.212Z,97358.19
2022-09-09T15:23:33.662Z,97359.84
2022-09-09T15:28:39.365Z,97365.34
2022-09-09T15:33:42.856Z,97366.53
2022-09-09T15:38:47.305Z,97366.03
2022-09-09T15:43:53.485Z,97369.13
2022-09-09T15:49:18.657Z,97362.06
2022-09-09T15:54:23.900Z,97370.28
2022-09-09T15:59:30.947Z,97369.81
2022-09-09T16:04:34.717Z,97371.44
2022-09-09T16:09:38.036Z,97377.88
2022-09-09T16:14:41.177Z,97381.44
2022-09-09T16:19:44.431Z,97378.63
2022-09-09T16:24:47.922Z,97391.03
2022-09-09T16:29:51.607Z,97393.31
2022-09-09T16:34:54.917Z,97393.94
2022-09-09T16:39:58.317Z,97396.03
2022-09-09T16:45:01.836Z,97401.63
2022-09-09T16:50:06.523Z,97403.44
2022-09-09T16:55:09.777Z,97412.75
2022-09-09T17:00:13.665Z,97413.38
2022-09-09T17:05:17.527Z,97426.25
2022-09-09T17:10:21.257Z,97420.63
2022-09-09T17:15:24.848Z,97432.53
2022-09-09T17:20:33.699Z,97432.84
2022-09-09T17:25:58.443Z,97433.47
2022-09-09T17:31:03.105Z,97440.88
2022-09-09T17:36:18.271Z,97448.91
2022-09-09T17:41:24.627Z,97458.88
2022-09-09T17:46:38.284Z,97455.34
2022-09-09T17:51:43.615Z,97460.63
2022-09-09T17:56:48.909Z,97471.88
2022-09-09T18:01:52.512Z,97477.97
2022-09-09T18:06:55.841Z,97472.03
2022-09-09T18:11:59.534Z,97471.50
2022-09-09T18:17:03.648Z,97481.34
2022-09-09T18:22:07.338Z,97494.22
2022-09-09T18:27:10.628Z,97483.56
2022-09-09T18:32:13.897Z,97484.19
2022-09-09T18:37:17.441Z,97474.19
2022-09-09T18:42:20.747Z,97482.38
2022-09-09T18:47:24.180Z,97481.91
2022-09-09T18:52:27.558Z,97477.88
2022-09-09T18:57:35.855Z,97478.50
2022-09-09T19:02:39.915Z,97477.22
2022-09-09T19:07:43.355Z,97474.81
2022-09-09T19:12:48.087Z,97477.53
2022-09-09T19:17:51.587Z,97475.59
2022-09-09T19:22:56.257Z,97467.41
2022-09-09T19:27:59.656Z,97472.06
2022-09-09T19:33:04.389Z,97469.94
2022-09-09T19:38:08.676Z,97479.06
2022-09-09T19:43:12.518Z,97476.66
2022-09-09T19:48:15.852Z,97480.84
2022-09-09T19:53:22.430Z,97471.84
2022-09-09T19:58:26.222Z,97485.00
2022-09-09T20:03:29.857Z,97488.53
2022-09-09T20:08:34.342Z,97481.44
2022-09-09T20:13:40.783Z,97483.69
2022-09-09T20:18:46.958Z,97488.16
2022-09-09T20:23:51.875Z,97486.56
2022-09-09T20:28:56.028Z,97483.34
2022-09-09T20:33:59.395Z,97485.88
2022-09-09T20:39:06.295Z,97472.53
2022-09-09T20:44:15.995Z,97473.13
2022-09-09T20:49:21.353Z,97486.00
2022-09-09T20:54:26.814Z,97484.72
2022-09-09T20:59:32.520Z,97483.41
2022-09-09T21:04:36.240Z,97473.91
2022-09-09T21:09:40.285Z,97476.94
2022-09-09T21:14:44.070Z,97476.47
2022-09-09T21:19:47.410Z,97482.22
2022-09-09T21:24:50.995Z,97482.00
2022-09-09T21:29:54.142Z,97479.88
2022-09-09T21:34:57.441Z,97487.28
2022-09-09T21:40:00.747Z,97486.31
2022-09-09T21:45:06.638Z,97480.31
2022-09-09T21:50:10.540Z,97472.75
2022-09-09T21:55:14.379Z,97478.50
2022-09-09T22:00:17.783Z,97472.88
2022-09-09T22:05:21.068Z,97478.94
2022-09-09T22:10:25.640Z,97480.06
2022-09-09T22:15:29.602Z,97478.56
2022-09-09T22:20:34.396Z,97472.81
2022-09-09T22:25:39.206Z,97474.22
2022-09-09T22:30:43.214Z,97468.28
2022-09-09T22:35:46.617Z,97465.34
2022-09-09T22:40:50.155Z,97459.06
2022-09-09T22:45:53.784Z,97455.06
2022-09-09T22:51:02.112Z,97454.25
2022-09-09T22:56:07.993Z,97453.72
2022-09-09T23:01:19.884Z,97457.59
2022-09-09T23:06:25.889Z,97451.63
2022-09-09T23:11:37.505Z,97448.09
2022-09-09T23:16:45.316Z,97440.50
2022-09-09T23:21:48.868Z,97443.56
2022-09-09T23:26:52.527Z,97437.59
2022-09-09T23:31:56.019Z,97434.34
2022-09-09T23:36:59.517Z,97425.69
2022-09-09T23:42:06.262Z,97429.53
2022-09-09T23:47:10.000Z,97428.22
2022-09-09T23:52:13.296Z,97429.97
2022-09-09T23:57:16.516Z,97435.72
